sensor_id;sensor_type;location;lat;lon;timestamp;P1;durP1;ratioP1;P2;durP2;ratioP2
2860;SDS011;1438;50.922;6.704;2023-10-09T00:01:41;19.80;;;12.33;;
2860;SDS011;1438;50.922;6.704;2023-10-09T00:04:11;19.37;;;10.97;;
2860;SDS011;1438;50.922;6.704;2023-10-09T00:06:39;18.27;;;11.80;;
2860;SDS011;1438;50.922;6.704;2023-10-09T00:09:07;19.40;;;11.70;;
2860;SDS011;1438;50.922;6.704;2023-10-09T00:11:45;14.37;;;10.60;;
2860;SDS011;1438;50.922;6.704;2023-10-09T00:14:11;15.23;;;10.63;;
2860;SDS011;1438;50.922;6.704;2023-10-09T00:16:37;17.63;;;10.33;;
2860;SDS011;1438;50.922;6.704;2023-10-09T00:19:12;17.77;;;10.30;;
2860;SDS011;1438;50.922;6.704;2023-10-09T00:21:58;17.03;;;10.77;;
2860;SDS011;1438;50.922;6.704;2023-10-09T00:24:31;23.20;;;10.33;;
2860;SDS011;1438;50.922;6.704;2023-10-09T00:26:57;16.10;;;10.67;;
2860;SDS011;1438;50.922;6.704;2023-10-09T00:29:38;16.60;;;10.10;;
2860;SDS011;1438;50.922;6.704;2023-10-09T00:32:11;13.30;;;10.23;;
2860;SDS011;1438;50.922;6.704;2023-10-09T00:34:52;18.50;;;10.63;;
2860;SDS011;1438;50.922;6.704;2023-10-09T00:37:23;14.17;;;9.87;;
2860;SDS011;1438;50.922;6.704;2023-10-09T00:39:50;17.77;;;10.80;;
2860;SDS011;1438;50.922;6.704;2023-10-09T00:42:22;17.57;;;10.37;;
2860;SDS011;1438;50.922;6.704;2023-10-09T00:45:03;14.97;;;10.00;;
2860;SDS011;1438;50.922;6.704;2023-10-09T00:47:30;15.37;;;11.10;;
2860;SDS011;1438;50.922;6.704;2023-10-09T00:50:06;16.57;;;9.60;;
2860;SDS011;1438;50.922;6.704;2023-10-09T00:52:47;12.50;;;9.80;;
2860;SDS011;1438;50.922;6.704;2023-10-09T00:55:26;14.07;;;9.70;;
2860;SDS011;1438;50.922;6.704;2023-10-09T00:58:02;15.17;;;9.37;;
2860;SDS011;1438;50.922;6.704;2023-10-09T01:00:35;16.83;;;10.00;;
2860;SDS011;1438;50.922;6.704;2023-10-09T01:03:10;22.53;;;10.63;;
2860;SDS011;1438;50.922;6.704;2023-10-09T01:05:53;15.83;;;10.60;;
2860;SDS011;1438;50.922;6.704;2023-10-09T01:08:24;15.50;;;9.90;;
2860;SDS011;1438;50.922;6.704;2023-10-09T01:11:12;14.30;;;10.00;;
2860;SDS011;1438;50.922;6.704;2023-10-09T01:13:46;13.83;;;9.53;;
2860;SDS011;1438;50.922;6.704;2023-10-09T01:16:13;11.67;;;9.80;;
2860;SDS011;1438;50.922;6.704;2023-10-09T01:18:49;15.10;;;10.13;;
2860;SDS011;1438;50.922;6.704;2023-10-09T01:21:16;12.00;;;10.37;;
2860;SDS011;1438;50.922;6.704;2023-10-09T01:23:46;15.43;;;9.63;;
2860;SDS011;1438;50.922;6.704;2023-10-09T01:26:30;14.53;;;10.00;;
2860;SDS011;1438;50.922;6.704;2023-10-09T01:29:00;15.57;;;9.40;;
2860;SDS011;1438;50.922;6.704;2023-10-09T01:31:26;14.80;;;9.50;;
2860;SDS011;1438;50.922;6.704;2023-10-09T01:33:53;13.17;;;9.23;;
2860;SDS011;1438;50.922;6.704;2023-10-09T01:36:19;14.23;;;8.43;;
2860;SDS011;1438;50.922;6.704;2023-10-09T01:38:57;11.93;;;8.77;;
2860;SDS011;1438;50.922;6.704;2023-10-09T01:41:49;13.97;;;10.00;;
2860;SDS011;1438;50.922;6.704;2023-10-09T01:44:22;14.27;;;8.93;;
2860;SDS011;1438;50.922;6.704;2023-10-09T01:46:50;18.17;;;11.13;;
2860;SDS011;1438;50.922;6.704;2023-10-09T01:49:19;13.77;;;10.03;;
2860;SDS011;1438;50.922;6.704;2023-10-09T01:51:55;16.47;;;9.10;;
2860;SDS011;1438;50.922;6.704;2023-10-09T01:54:23;14.93;;;10.10;;
2860;SDS011;1438;50.922;6.704;2023-10-09T01:57:02;15.20;;;9.27;;
2860;SDS011;1438;50.922;6.704;2023-10-09T01:59:33;14.00;;;8.70;;
2860;SDS011;1438;50.922;6.704;2023-10-09T02:02:02;15.57;;;9.67;;
2860;SDS011;1438;50.922;6.704;2023-10-09T02:04:39;15.57;;;9.00;;
2860;SDS011;1438;50.922;6.704;2023-10-09T02:07:07;11.83;;;9.10;;
2860;SDS011;1438;50.922;6.704;2023-10-09T02:09:37;16.63;;;8.67;;
2860;SDS011;1438;50.922;6.704;2023-10-09T02:12:11;18.00;;;8.57;;
2860;SDS011;1438;50.922;6.704;2023-10-09T02:14:37;12.80;;;10.23;;
2860;SDS011;1438;50.922;6.704;2023-10-09T02:17:06;16.93;;;9.67;;
2860;SDS011;1438;50.922;6.704;2023-10-09T02:19:43;16.93;;;9.00;;
2860;SDS011;1438;50.922;6.704;2023-10-09T02:22:13;16.57;;;9.13;;
2860;SDS011;1438;50.922;6.704;2023-10-09T02:24:43;13.77;;;8.77;;
2860;SDS011;1438;50.922;6.704;2023-10-09T02:27:16;12.40;;;8.87;;
2860;SDS011;1438;50.922;6.704;2023-10-09T02:30:07;12.77;;;8.50;;
2860;SDS011;1438;50.922;6.704;2023-10-09T02:32:44;16.80;;;9.00;;
2860;SDS011;1438;50.922;6.704;2023-10-09T02:35:14;11.33;;;8.37;;
2860;SDS011;1438;50.922;6.704;2023-10-09T02:37:58;14.10;;;7.93;;
2860;SDS011;1438;50.922;6.704;2023-10-09T02:40:28;15.13;;;8.57;;
2860;SDS011;1438;50.922;6.704;2023-10-09T02:42:58;17.30;;;9.27;;
2860;SDS011;1438;50.922;6.704;2023-10-09T02:45:24;13.07;;;9.37;;
2860;SDS011;1438;50.922;6.704;2023-10-09T02:47:49;16.47;;;10.27;;
2860;SDS011;1438;50.922;6.704;2023-10-09T02:50:16;12.10;;;9.17;;
2860;SDS011;1438;50.922;6.704;2023-10-09T02:52:46;13.63;;;9.73;;
2860;SDS011;1438;50.922;6.704;2023-10-09T02:55:13;10.83;;;8.20;;
2860;SDS011;1438;50.922;6.704;2023-10-09T02:57:48;13.87;;;9.20;;
2860;SDS011;1438;50.922;6.704;2023-10-09T03:00:17;11.77;;;9.50;;
2860;SDS011;1438;50.922;6.704;2023-10-09T03:02:54;13.83;;;8.77;;
2860;SDS011;1438;50.922;6.704;2023-10-09T03:05:23;14.00;;;8.80;;
2860;SDS011;1438;50.922;6.704;2023-10-09T03:07:52;11.00;;;7.73;;
2860;SDS011;1438;50.922;6.704;2023-10-09T03:10:23;13.63;;;8.50;;
2860;SDS011;1438;50.922;6.704;2023-10-09T03:12:50;10.50;;;8.20;;
2860;SDS011;1438;50.922;6.704;2023-10-09T03:15:21;13.17;;;8.50;;
2860;SDS011;1438;50.922;6.704;2023-10-09T03:17:47;11.77;;;8.13;;
2860;SDS011;1438;50.922;6.704;2023-10-09T03:20:13;10.70;;;7.43;;
2860;SDS011;1438;50.922;6.704;2023-10-09T03:22:42;13.77;;;9.43;;
2860;SDS011;1438;50.922;6.704;2023-10-09T03:25:09;13.30;;;9.13;;
2860;SDS011;1438;50.922;6.704;2023-10-09T03:27:42;11.00;;;7.87;;
2860;SDS011;1438;50.922;6.704;2023-10-09T03:30:10;10.17;;;8.10;;
2860;SDS011;1438;50.922;6.704;2023-10-09T03:32:42;11.10;;;7.67;;
2860;SDS011;1438;50.922;6.704;2023-10-09T03:35:09;13.33;;;8.73;;
2860;SDS011;1438;50.922;6.704;2023-10-09T03:37:39;11.40;;;8.43;;
2860;SDS011;1438;50.922;6.704;2023-10-09T03:40:05;10.37;;;7.93;;
2860;SDS011;1438;50.922;6.704;2023-10-09T03:42:32;12.30;;;9.60;;
2860;SDS011;1438;50.922;6.704;2023-10-09T03:45:01;12.43;;;8.57;;
2860;SDS011;1438;50.922;6.704;2023-10-09T03:47:31;16.53;;;9.13;;
2860;SDS011;1438;50.922;6.704;2023-10-09T03:49:56;11.53;;;7.47;;
2860;SDS011;1438;50.922;6.704;2023-10-09T03:52:22;11.03;;;8.30;;
2860;SDS011;1438;50.922;6.704;2023-10-09T03:54:50;9.90;;;7.60;;
2860;SDS011;1438;50.922;6.704;2023-10-09T03:57:16;10.73;;;7.50;;
2860;SDS011;1438;50.922;6.704;2023-10-09T03:59:47;14.27;;;7.80;;
2860;SDS011;1438;50.922;6.704;2023-10-09T04:02:16;12.77;;;8.00;;
2860;SDS011;1438;50.922;6.704;2023-10-09T04:04:42;12.40;;;7.50;;
2860;SDS011;1438;50.922;6.704;2023-10-09T04:07:12;9.10;;;7.43;;
2860;SDS011;1438;50.922;6.704;2023-10-09T04:09:39;9.20;;;7.10;;
2860;SDS011;1438;50.922;6.704;2023-10-09T04:12:09;9.27;;;7.70;;
2860;SDS011;1438;50.922;6.704;2023-10-09T04:14:35;12.10;;;7.87;;
2860;SDS011;1438;50.922;6.704;2023-10-09T04:17:01;12.07;;;8.90;;
2860;SDS011;1438;50.922;6.704;2023-10-09T04:19:32;12.53;;;7.93;;
2860;SDS011;1438;50.922;6.704;2023-10-09T04:22:13;11.80;;;7.63;;
2860;SDS011;1438;50.922;6.704;2023-10-09T04:24:51;16.77;;;8.53;;
2860;SDS011;1438;50.922;6.704;2023-10-09T04:27:17;13.63;;;8.40;;
2860;SDS011;1438;50.922;6.704;2023-10-09T04:29:44;14.60;;;9.17;;
2860;SDS011;1438;50.922;6.704;2023-10-09T04:32:14;11.60;;;8.57;;
2860;SDS011;1438;50.922;6.704;2023-10-09T04:34:43;11.53;;;8.37;;
2860;SDS011;1438;50.922;6.704;2023-10-09T04:37:21;13.80;;;7.77;;
2860;SDS011;1438;50.922;6.704;2023-10-09T04:40:02;13.00;;;8.67;;
2860;SDS011;1438;50.922;6.704;2023-10-09T04:42:39;12.50;;;8.83;;
2860;SDS011;1438;50.922;6.704;2023-10-09T04:45:11;13.60;;;8.30;;
2860;SDS011;1438;50.922;6.704;2023-10-09T04:47:40;12.83;;;8.20;;
2860;SDS011;1438;50.922;6.704;2023-10-09T04:50:15;12.17;;;8.10;;
2860;SDS011;1438;50.922;6.704;2023-10-09T04:52:44;14.20;;;8.57;;
2860;SDS011;1438;50.922;6.704;2023-10-09T04:55:09;15.23;;;8.00;;
2860;SDS011;1438;50.922;6.704;2023-10-09T05:02:49;9.03;;;7.53;;
2860;SDS011;1438;50.922;6.704;2023-10-09T05:05:22;12.80;;;7.80;;
2860;SDS011;1438;50.922;6.704;2023-10-09T05:08:07;12.70;;;8.73;;
2860;SDS011;1438;50.922;6.704;2023-10-09T05:10:53;11.63;;;7.10;;
2860;SDS011;1438;50.922;6.704;2023-10-09T05:16:09;12.70;;;7.63;;
2860;SDS011;1438;50.922;6.704;2023-10-09T05:18:52;11.00;;;6.63;;
2860;SDS011;1438;50.922;6.704;2023-10-09T05:21:22;14.03;;;7.20;;
2860;SDS011;1438;50.922;6.704;2023-10-09T05:23:57;8.90;;;6.60;;
2860;SDS011;1438;50.922;6.704;2023-10-09T05:29:17;12.17;;;6.87;;
2860;SDS011;1438;50.922;6.704;2023-10-09T05:32:03;9.73;;;6.50;;
2860;SDS011;1438;50.922;6.704;2023-10-09T05:34:38;9.37;;;6.30;;
2860;SDS011;1438;50.922;6.704;2023-10-09T05:37:26;8.10;;;6.10;;
2860;SDS011;1438;50.922;6.704;2023-10-09T05:40:08;12.30;;;6.77;;
2860;SDS011;1438;50.922;6.704;2023-10-09T05:42:43;11.00;;;5.90;;
2860;SDS011;1438;50.922;6.704;2023-10-09T05:45:16;11.20;;;6.87;;
2860;SDS011;1438;50.922;6.704;2023-10-09T05:47:45;8.30;;;5.70;;
2860;SDS011;1438;50.922;6.704;2023-10-09T05:50:25;11.00;;;7.53;;
2860;SDS011;1438;50.922;6.704;2023-10-09T05:52:52;15.67;;;7.30;;
2860;SDS011;1438;50.922;6.704;2023-10-09T05:55:18;14.43;;;8.03;;
2860;SDS011;1438;50.922;6.704;2023-10-09T05:57:50;11.70;;;6.53;;
2860;SDS011;1438;50.922;6.704;2023-10-09T06:00:35;9.60;;;6.27;;
2860;SDS011;1438;50.922;6.704;2023-10-09T06:03:39;11.13;;;7.43;;
2860;SDS011;1438;50.922;6.704;2023-10-09T06:06:14;13.00;;;6.70;;
2860;SDS011;1438;50.922;6.704;2023-10-09T06:08:58;10.10;;;6.00;;
2860;SDS011;1438;50.922;6.704;2023-10-09T06:11:36;9.43;;;6.60;;
2860;SDS011;1438;50.922;6.704;2023-10-09T06:14:01;10.20;;;6.40;;
2860;SDS011;1438;50.922;6.704;2023-10-09T06:16:47;11.20;;;6.10;;
2860;SDS011;1438;50.922;6.704;2023-10-09T06:19:22;16.20;;;9.67;;
2860;SDS011;1438;50.922;6.704;2023-10-09T06:21:48;9.20;;;6.27;;
2860;SDS011;1438;50.922;6.704;2023-10-09T06:24:29;11.13;;;7.10;;
2860;SDS011;1438;50.922;6.704;2023-10-09T06:26:58;10.20;;;5.53;;
2860;SDS011;1438;50.922;6.704;2023-10-09T06:29:28;11.50;;;6.80;;
2860;SDS011;1438;50.922;6.704;2023-10-09T06:32:03;10.73;;;7.23;;
2860;SDS011;1438;50.922;6.704;2023-10-09T06:34:59;12.47;;;7.30;;
2860;SDS011;1438;50.922;6.704;2023-10-09T06:37:42;11.07;;;6.20;;
2860;SDS011;1438;50.922;6.704;2023-10-09T06:40:36;10.10;;;7.33;;
2860;SDS011;1438;50.922;6.704;2023-10-09T06:43:21;9.47;;;5.97;;
2860;SDS011;1438;50.922;6.704;2023-10-09T06:45:56;7.50;;;5.97;;
2860;SDS011;1438;50.922;6.704;2023-10-09T06:48:23;12.97;;;7.10;;
2860;SDS011;1438;50.922;6.704;2023-10-09T06:51:02;9.00;;;4.87;;
2860;SDS011;1438;50.922;6.704;2023-10-09T06:53:34;9.53;;;6.03;;
2860;SDS011;1438;50.922;6.704;2023-10-09T06:56:28;7.60;;;5.37;;
2860;SDS011;1438;50.922;6.704;2023-10-09T06:58:54;9.67;;;5.60;;
2860;SDS011;1438;50.922;6.704;2023-10-09T07:01:47;9.50;;;5.87;;
2860;SDS011;1438;50.922;6.704;2023-10-09T07:04:32;8.17;;;5.60;;
2860;SDS011;1438;50.922;6.704;2023-10-09T07:06:57;6.83;;;4.57;;
2860;SDS011;1438;50.922;6.704;2023-10-09T07:09:24;7.73;;;5.67;;
2860;SDS011;1438;50.922;6.704;2023-10-09T07:12:07;8.07;;;6.00;;
2860;SDS011;1438;50.922;6.704;2023-10-09T07:14:39;9.20;;;5.60;;
2860;SDS011;1438;50.922;6.704;2023-10-09T07:17:06;8.93;;;5.77;;
2860;SDS011;1438;50.922;6.704;2023-10-09T07:19:52;10.77;;;5.50;;
2860;SDS011;1438;50.922;6.704;2023-10-09T07:22:21;7.03;;;5.10;;
2860;SDS011;1438;50.922;6.704;2023-10-09T07:24:47;8.03;;;5.50;;
2860;SDS011;1438;50.922;6.704;2023-10-09T07:27:26;5.40;;;4.67;;
2860;SDS011;1438;50.922;6.704;2023-10-09T07:30:12;5.73;;;4.33;;
2860;SDS011;1438;50.922;6.704;2023-10-09T07:32:56;9.70;;;5.30;;
2860;SDS011;1438;50.922;6.704;2023-10-09T07:35:49;14.80;;;6.57;;
2860;SDS011;1438;50.922;6.704;2023-10-09T07:38:22;6.60;;;5.50;;
2860;SDS011;1438;50.922;6.704;2023-10-09T07:40:53;6.00;;;4.80;;
2860;SDS011;1438;50.922;6.704;2023-10-09T07:43:32;7.47;;;4.50;;
2860;SDS011;1438;50.922;6.704;2023-10-09T07:46:17;6.77;;;5.27;;
2860;SDS011;1438;50.922;6.704;2023-10-09T07:49:09;10.70;;;5.77;;
2860;SDS011;1438;50.922;6.704;2023-10-09T07:51:37;8.67;;;5.40;;
2860;SDS011;1438;50.922;6.704;2023-10-09T07:54:08;6.80;;;4.57;;
2860;SDS011;1438;50.922;6.704;2023-10-09T07:56:42;8.87;;;5.90;;
2860;SDS011;1438;50.922;6.704;2023-10-09T07:59:12;7.40;;;5.03;;
2860;SDS011;1438;50.922;6.704;2023-10-09T08:01:42;9.40;;;6.50;;
2860;SDS011;1438;50.922;6.704;2023-10-09T08:04:22;9.80;;;5.77;;
2860;SDS011;1438;50.922;6.704;2023-10-09T08:07:09;11.03;;;6.40;;
2860;SDS011;1438;50.922;6.704;2023-10-09T08:09:44;8.40;;;5.20;;
2860;SDS011;1438;50.922;6.704;2023-10-09T08:12:13;9.57;;;5.30;;
2860;SDS011;1438;50.922;6.704;2023-10-09T08:14:43;10.47;;;5.93;;
2860;SDS011;1438;50.922;6.704;2023-10-09T08:17:13;11.27;;;6.63;;
2860;SDS011;1438;50.922;6.704;2023-10-09T08:19:41;8.20;;;6.17;;
2860;SDS011;1438;50.922;6.704;2023-10-09T08:22:22;11.30;;;6.20;;
2860;SDS011;1438;50.922;6.704;2023-10-09T08:24:49;12.90;;;6.83;;
2860;SDS011;1438;50.922;6.704;2023-10-09T08:27:21;7.50;;;5.03;;
2860;SDS011;1438;50.922;6.704;2023-10-09T08:29:56;8.83;;;6.43;;
2860;SDS011;1438;50.922;6.704;2023-10-09T08:32:45;9.20;;;6.73;;
2860;SDS011;1438;50.922;6.704;2023-10-09T08:35:36;9.80;;;6.60;;
2860;SDS011;1438;50.922;6.704;2023-10-09T08:38:14;13.63;;;7.20;;
2860;SDS011;1438;50.922;6.704;2023-10-09T08:40:42;12.37;;;7.07;;
2860;SDS011;1438;50.922;6.704;2023-10-09T08:43:17;11.90;;;7.00;;
2860;SDS011;1438;50.922;6.704;2023-10-09T08:45:48;14.87;;;6.07;;
2860;SDS011;1438;50.922;6.704;2023-10-09T08:48:18;10.00;;;6.17;;
2860;SDS011;1438;50.922;6.704;2023-10-09T08:50:46;10.93;;;6.40;;
2860;SDS011;1438;50.922;6.704;2023-10-09T08:53:14;10.90;;;6.73;;
2860;SDS011;1438;50.922;6.704;2023-10-09T08:55:41;8.63;;;5.80;;
2860;SDS011;1438;50.922;6.704;2023-10-09T08:58:08;8.97;;;6.17;;
2860;SDS011;1438;50.922;6.704;2023-10-09T09:00:51;9.03;;;6.00;;
2860;SDS011;1438;50.922;6.704;2023-10-09T09:03:20;9.63;;;6.40;;
2860;SDS011;1438;50.922;6.704;2023-10-09T09:05:58;7.40;;;5.73;;
2860;SDS011;1438;50.922;6.704;2023-10-09T09:08:28;9.47;;;6.20;;
2860;SDS011;1438;50.922;6.704;2023-10-09T09:11:01;10.80;;;6.77;;
2860;SDS011;1438;50.922;6.704;2023-10-09T09:13:48;7.83;;;6.37;;
2860;SDS011;1438;50.922;6.704;2023-10-09T09:16:30;11.20;;;6.20;;
2860;SDS011;1438;50.922;6.704;2023-10-09T09:19:04;6.87;;;5.57;;
2860;SDS011;1438;50.922;6.704;2023-10-09T09:21:34;9.47;;;5.40;;
2860;SDS011;1438;50.922;6.704;2023-10-09T09:24:05;9.50;;;5.67;;
2860;SDS011;1438;50.922;6.704;2023-10-09T09:26:41;11.07;;;5.50;;
2860;SDS011;1438;50.922;6.704;2023-10-09T09:29:11;10.20;;;5.73;;
2860;SDS011;1438;50.922;6.704;2023-10-09T09:32:04;14.90;;;6.17;;
2860;SDS011;1438;50.922;6.704;2023-10-09T09:37:19;10.10;;;6.63;;
2860;SDS011;1438;50.922;6.704;2023-10-09T09:39:46;6.70;;;4.83;;
2860;SDS011;1438;50.922;6.704;2023-10-09T09:42:16;10.43;;;5.77;;
2860;SDS011;1438;50.922;6.704;2023-10-09T09:44:42;8.47;;;5.30;;
2860;SDS011;1438;50.922;6.704;2023-10-09T09:47:12;12.43;;;5.60;;
2860;SDS011;1438;50.922;6.704;2023-10-09T09:49:48;9.80;;;5.03;;
2860;SDS011;1438;50.922;6.704;2023-10-09T09:52:15;5.67;;;4.43;;
2860;SDS011;1438;50.922;6.704;2023-10-09T09:54:43;11.93;;;4.70;;
2860;SDS011;1438;50.922;6.704;2023-10-09T09:57:09;7.37;;;4.50;;
2860;SDS011;1438;50.922;6.704;2023-10-09T09:59:39;10.27;;;4.30;;
2860;SDS011;1438;50.922;6.704;2023-10-09T10:02:05;7.70;;;4.80;;
2860;SDS011;1438;50.922;6.704;2023-10-09T10:04:36;8.20;;;4.60;;
2860;SDS011;1438;50.922;6.704;2023-10-09T10:07:05;9.00;;;4.60;;
2860;SDS011;1438;50.922;6.704;2023-10-09T10:09:40;9.27;;;5.23;;
2860;SDS011;1438;50.922;6.704;2023-10-09T10:12:11;5.00;;;4.07;;
2860;SDS011;1438;50.922;6.704;2023-10-09T10:14:58;10.97;;;4.80;;
2860;SDS011;1438;50.922;6.704;2023-10-09T10:17:24;6.77;;;3.90;;
2860;SDS011;1438;50.922;6.704;2023-10-09T10:20:02;8.10;;;4.00;;
2860;SDS011;1438;50.922;6.704;2023-10-09T10:22:49;8.33;;;4.73;;
2860;SDS011;1438;50.922;6.704;2023-10-09T10:28:21;6.70;;;4.10;;
2860;SDS011;1438;50.922;6.704;2023-10-09T10:31:04;5.57;;;3.63;;
2860;SDS011;1438;50.922;6.704;2023-10-09T10:36:20;6.77;;;4.43;;
2860;SDS011;1438;50.922;6.704;2023-10-09T10:38:55;8.00;;;4.40;;
2860;SDS011;1438;50.922;6.704;2023-10-09T10:41:54;5.40;;;3.53;;
2860;SDS011;1438;50.922;6.704;2023-10-09T10:44:30;9.63;;;3.90;;
2860;SDS011;1438;50.922;6.704;2023-10-09T10:47:07;9.70;;;3.87;;
2860;SDS011;1438;50.922;6.704;2023-10-09T10:49:50;6.73;;;4.27;;
2860;SDS011;1438;50.922;6.704;2023-10-09T10:52:23;7.50;;;4.80;;
2860;SDS011;1438;50.922;6.704;2023-10-09T10:55:13;8.70;;;4.00;;
2860;SDS011;1438;50.922;6.704;2023-10-09T10:57:44;12.37;;;4.03;;
2860;SDS011;1438;50.922;6.704;2023-10-09T11:00:39;5.23;;;3.17;;
2860;SDS011;1438;50.922;6.704;2023-10-09T11:03:24;7.90;;;4.13;;
2860;SDS011;1438;50.922;6.704;2023-10-09T11:06:09;9.13;;;3.87;;
2860;SDS011;1438;50.922;6.704;2023-10-09T11:08:43;8.97;;;4.17;;
2860;SDS011;1438;50.922;6.704;2023-10-09T11:11:33;12.20;;;3.80;;
2860;SDS011;1438;50.922;6.704;2023-10-09T11:14:09;6.73;;;4.30;;
2860;SDS011;1438;50.922;6.704;2023-10-09T11:16:48;6.93;;;3.90;;
2860;SDS011;1438;50.922;6.704;2023-10-09T11:19:21;6.10;;;3.50;;
2860;SDS011;1438;50.922;6.704;2023-10-09T11:22:00;7.27;;;4.10;;
2860;SDS011;1438;50.922;6.704;2023-10-09T11:24:33;8.30;;;4.40;;
2860;SDS011;1438;50.922;6.704;2023-10-09T11:27:01;6.00;;;3.23;;
2860;SDS011;1438;50.922;6.704;2023-10-09T11:29:49;11.23;;;4.87;;
2860;SDS011;1438;50.922;6.704;2023-10-09T11:34:49;8.70;;;4.67;;
2860;SDS011;1438;50.922;6.704;2023-10-09T11:37:19;9.70;;;3.90;;
2860;SDS011;1438;50.922;6.704;2023-10-09T11:39:54;7.43;;;3.90;;
2860;SDS011;1438;50.922;6.704;2023-10-09T11:42:24;7.50;;;4.20;;
2860;SDS011;1438;50.922;6.704;2023-10-09T11:45:03;7.83;;;3.60;;
2860;SDS011;1438;50.922;6.704;2023-10-09T11:47:45;4.67;;;3.70;;
2860;SDS011;1438;50.922;6.704;2023-10-09T11:50:37;8.20;;;3.97;;
2860;SDS011;1438;50.922;6.704;2023-10-09T11:53:07;7.40;;;3.37;;
2860;SDS011;1438;50.922;6.704;2023-10-09T11:55:37;7.00;;;4.10;;
2860;SDS011;1438;50.922;6.704;2023-10-09T11:58:03;5.33;;;3.83;;
2860;SDS011;1438;50.922;6.704;2023-10-09T12:00:30;8.07;;;3.83;;
2860;SDS011;1438;50.922;6.704;2023-10-09T12:03:07;5.83;;;3.80;;
2860;SDS011;1438;50.922;6.704;2023-10-09T12:05:34;6.30;;;4.20;;
2860;SDS011;1438;50.922;6.704;2023-10-09T12:07:59;6.03;;;3.93;;
2860;SDS011;1438;50.922;6.704;2023-10-09T12:10:26;10.43;;;4.33;;
2860;SDS011;1438;50.922;6.704;2023-10-09T12:12:54;7.40;;;4.23;;
2860;SDS011;1438;50.922;6.704;2023-10-09T12:15:23;6.90;;;3.90;;
2860;SDS011;1438;50.922;6.704;2023-10-09T12:17:49;6.77;;;3.90;;
2860;SDS011;1438;50.922;6.704;2023-10-09T12:20:18;7.30;;;3.77;;
2860;SDS011;1438;50.922;6.704;2023-10-09T12:23:00;7.17;;;3.80;;
2860;SDS011;1438;50.922;6.704;2023-10-09T12:25:29;7.07;;;4.30;;
2860;SDS011;1438;50.922;6.704;2023-10-09T12:27:57;5.63;;;4.00;;
2860;SDS011;1438;50.922;6.704;2023-10-09T12:30:23;8.07;;;4.43;;
2860;SDS011;1438;50.922;6.704;2023-10-09T12:32:54;8.37;;;4.33;;
2860;SDS011;1438;50.922;6.704;2023-10-09T12:35:23;7.47;;;4.00;;
2860;SDS011;1438;50.922;6.704;2023-10-09T12:37:50;7.90;;;3.73;;
2860;SDS011;1438;50.922;6.704;2023-10-09T12:40:17;7.20;;;5.03;;
2860;SDS011;1438;50.922;6.704;2023-10-09T12:42:52;9.10;;;4.70;;
2860;SDS011;1438;50.922;6.704;2023-10-09T12:45:18;7.63;;;4.20;;
2860;SDS011;1438;50.922;6.704;2023-10-09T12:47:51;9.80;;;4.03;;
2860;SDS011;1438;50.922;6.704;2023-10-09T12:50:33;7.13;;;4.20;;
2860;SDS011;1438;50.922;6.704;2023-10-09T12:53:00;5.67;;;3.73;;
2860;SDS011;1438;50.922;6.704;2023-10-09T12:55:34;5.43;;;4.40;;
2860;SDS011;1438;50.922;6.704;2023-10-09T12:58:07;7.50;;;3.97;;
2860;SDS011;1438;50.922;6.704;2023-10-09T13:00:34;12.50;;;4.97;;
2860;SDS011;1438;50.922;6.704;2023-10-09T13:03:03;8.00;;;4.30;;
2860;SDS011;1438;50.922;6.704;2023-10-09T13:05:52;7.00;;;4.07;;
2860;SDS011;1438;50.922;6.704;2023-10-09T13:08:21;9.70;;;4.63;;
2860;SDS011;1438;50.922;6.704;2023-10-09T13:10:50;8.33;;;4.93;;
2860;SDS011;1438;50.922;6.704;2023-10-09T13:13:28;8.57;;;4.50;;
2860;SDS011;1438;50.922;6.704;2023-10-09T13:16:08;7.90;;;4.23;;
2860;SDS011;1438;50.922;6.704;2023-10-09T13:18:39;5.40;;;4.10;;
2860;SDS011;1438;50.922;6.704;2023-10-09T13:21:06;8.17;;;5.00;;
2860;SDS011;1438;50.922;6.704;2023-10-09T13:23:31;5.93;;;3.60;;
2860;SDS011;1438;50.922;6.704;2023-10-09T13:26:11;6.03;;;3.90;;
2860;SDS011;1438;50.922;6.704;2023-10-09T13:28:47;5.90;;;4.20;;
2860;SDS011;1438;50.922;6.704;2023-10-09T13:31:14;6.30;;;4.60;;
2860;SDS011;1438;50.922;6.704;2023-10-09T13:33:41;9.00;;;4.57;;
2860;SDS011;1438;50.922;6.704;2023-10-09T13:36:07;7.13;;;3.70;;
2860;SDS011;1438;50.922;6.704;2023-10-09T13:38:42;7.27;;;3.80;;
2860;SDS011;1438;50.922;6.704;2023-10-09T13:41:08;10.73;;;4.43;;
2860;SDS011;1438;50.922;6.704;2023-10-09T13:43:38;7.43;;;4.37;;
2860;SDS011;1438;50.922;6.704;2023-10-09T13:46:09;9.40;;;4.67;;
2860;SDS011;1438;50.922;6.704;2023-10-09T13:48:36;8.97;;;4.37;;
2860;SDS011;1438;50.922;6.704;2023-10-09T13:51:06;8.40;;;4.33;;
2860;SDS011;1438;50.922;6.704;2023-10-09T13:53:42;10.00;;;4.03;;
2860;SDS011;1438;50.922;6.704;2023-10-09T13:56:14;6.83;;;4.10;;
2860;SDS011;1438;50.922;6.704;2023-10-09T13:58:44;10.93;;;4.50;;
2860;SDS011;1438;50.922;6.704;2023-10-09T14:01:10;10.73;;;4.73;;
2860;SDS011;1438;50.922;6.704;2023-10-09T14:03:36;8.33;;;4.17;;
2860;SDS011;1438;50.922;6.704;2023-10-09T14:06:03;8.20;;;4.00;;
2860;SDS011;1438;50.922;6.704;2023-10-09T14:08:37;5.43;;;4.20;;
2860;SDS011;1438;50.922;6.704;2023-10-09T14:11:09;7.33;;;4.07;;
2860;SDS011;1438;50.922;6.704;2023-10-09T14:13:41;8.00;;;4.10;;
2860;SDS011;1438;50.922;6.704;2023-10-09T14:16:07;6.17;;;3.40;;
2860;SDS011;1438;50.922;6.704;2023-10-09T14:18:48;6.87;;;4.17;;
2860;SDS011;1438;50.922;6.704;2023-10-09T14:21:18;9.47;;;5.00;;
2860;SDS011;1438;50.922;6.704;2023-10-09T14:23:46;8.17;;;5.00;;
2860;SDS011;1438;50.922;6.704;2023-10-09T14:26:13;11.27;;;5.00;;
2860;SDS011;1438;50.922;6.704;2023-10-09T14:28:39;6.80;;;4.40;;
2860;SDS011;1438;50.922;6.704;2023-10-09T14:31:07;11.93;;;4.80;;
2860;SDS011;1438;50.922;6.704;2023-10-09T14:33:37;6.50;;;4.50;;
2860;SDS011;1438;50.922;6.704;2023-10-09T14:36:02;7.83;;;4.80;;
2860;SDS011;1438;50.922;6.704;2023-10-09T14:38:30;6.83;;;4.60;;
2860;SDS011;1438;50.922;6.704;2023-10-09T14:40:58;5.17;;;4.30;;
2860;SDS011;1438;50.922;6.704;2023-10-09T14:43:25;7.40;;;5.10;;
2860;SDS011;1438;50.922;6.704;2023-10-09T14:45:54;8.93;;;4.37;;
2860;SDS011;1438;50.922;6.704;2023-10-09T14:48:20;7.40;;;4.60;;
2860;SDS011;1438;50.922;6.704;2023-10-09T14:50:54;6.20;;;5.10;;
2860;SDS011;1438;50.922;6.704;2023-10-09T14:53:29;10.40;;;5.33;;
2860;SDS011;1438;50.922;6.704;2023-10-09T14:55:56;12.93;;;5.97;;
2860;SDS011;1438;50.922;6.704;2023-10-09T14:58:22;7.37;;;5.30;;
2860;SDS011;1438;50.922;6.704;2023-10-09T15:00:53;5.70;;;4.80;;
2860;SDS011;1438;50.922;6.704;2023-10-09T15:03:19;8.00;;;5.30;;
2860;SDS011;1438;50.922;6.704;2023-10-09T15:05:45;7.70;;;5.00;;
2860;SDS011;1438;50.922;6.704;2023-10-09T15:08:11;8.00;;;5.17;;
2860;SDS011;1438;50.922;6.704;2023-10-09T15:10:46;12.43;;;5.93;;
2860;SDS011;1438;50.922;6.704;2023-10-09T15:13:16;13.17;;;5.63;;
2860;SDS011;1438;50.922;6.704;2023-10-09T15:15:45;8.33;;;5.17;;
2860;SDS011;1438;50.922;6.704;2023-10-09T15:18:16;8.93;;;5.43;;
2860;SDS011;1438;50.922;6.704;2023-10-09T15:20:43;9.60;;;4.87;;
2860;SDS011;1438;50.922;6.704;2023-10-09T15:23:10;8.43;;;5.60;;
2860;SDS011;1438;50.922;6.704;2023-10-09T15:25:35;7.50;;;4.80;;
2860;SDS011;1438;50.922;6.704;2023-10-09T15:28:04;10.93;;;6.50;;
2860;SDS011;1438;50.922;6.704;2023-10-09T15:30:32;6.73;;;5.43;;
2860;SDS011;1438;50.922;6.704;2023-10-09T15:32:58;8.07;;;5.30;;
2860;SDS011;1438;50.922;6.704;2023-10-09T15:35:24;7.40;;;4.97;;
2860;SDS011;1438;50.922;6.704;2023-10-09T15:37:53;7.73;;;5.70;;
2860;SDS011;1438;50.922;6.704;2023-10-09T15:40:19;9.63;;;5.83;;
2860;SDS011;1438;50.922;6.704;2023-10-09T15:42:49;8.87;;;5.30;;
2860;SDS011;1438;50.922;6.704;2023-10-09T15:45:15;13.87;;;5.33;;
2860;SDS011;1438;50.922;6.704;2023-10-09T15:47:41;9.30;;;5.17;;
2860;SDS011;1438;50.922;6.704;2023-10-09T15:50:07;8.80;;;5.27;;
2860;SDS011;1438;50.922;6.704;2023-10-09T15:52:35;9.03;;;5.10;;
2860;SDS011;1438;50.922;6.704;2023-10-09T15:55:03;10.97;;;5.40;;
2860;SDS011;1438;50.922;6.704;2023-10-09T15:57:31;12.60;;;6.33;;
2860;SDS011;1438;50.922;6.704;2023-10-09T15:59:57;10.10;;;4.90;;
2860;SDS011;1438;50.922;6.704;2023-10-09T16:02:23;7.67;;;5.47;;
2860;SDS011;1438;50.922;6.704;2023-10-09T16:04:49;11.77;;;6.43;;